sensor_id;sensor_type;location;lat;lon;timestamp;temperature;humidity
36384;DHT22;22418;51.210;6.976;2023-08-01T00:01:50;17.90;99.90
36384;DHT22;22418;51.210;6.976;2023-08-01T00:04:21;18.00;99.90
36384;DHT22;22418;51.210;6.976;2023-08-01T00:06:51;17.90;99.90
36384;DHT22;22418;51.210;6.976;2023-08-01T00:09:21;18.00;99.90
36384;DHT22;22418;51.210;6.976;2023-08-01T00:11:52;18.00;99.90
36384;DHT22;22418;51.210;6.976;2023-08-01T00:14:22;17.90;99.90
36384;DHT22;22418;51.210;6.976;2023-08-01T00:16:54;17.90;99.90
36384;DHT22;22418;51.210;6.976;2023-08-01T00:19:25;17.90;99.90
36384;DHT22;22418;51.210;6.976;2023-08-01T00:21:55;17.90;99.90
36384;DHT22;22418;51.210;6.976;2023-08-01T00:24:25;18.00;99.90
36384;DHT22;22418;51.210;6.976;2023-08-01T00:26:56;18.00;99.90
36384;DHT22;22418;51.210;6.976;2023-08-01T00:29:26;18.00;99.90
36384;DHT22;22418;51.210;6.976;2023-08-01T00:31:57;18.00;99.90
36384;DHT22;22418;51.210;6.976;2023-08-01T00:34:27;18.00;99.90
36384;DHT22;22418;51.210;6.976;2023-08-01T00:36:58;18.00;99.90
36384;DHT22;22418;51.210;6.976;2023-08-01T00:39:28;17.90;99.90
36384;DHT22;22418;51.210;6.976;2023-08-01T00:41:59;17.90;99.90
36384;DHT22;22418;51.210;6.976;2023-08-01T00:44:29;17.90;99.90
36384;DHT22;22418;51.210;6.976;2023-08-01T00:47:00;17.80;99.90
36384;DHT22;22418;51.210;6.976;2023-08-01T00:49:30;17.90;99.90
36384;DHT22;22418;51.210;6.976;2023-08-01T00:52:01;17.90;99.90
36384;DHT22;22418;51.210;6.976;2023-08-01T00:54:32;17.90;99.90
36384;DHT22;22418;51.210;6.976;2023-08-01T00:57:06;17.90;99.90
36384;DHT22;22418;51.210;6.976;2023-08-01T00:59:37;17.90;99.90
36384;DHT22;22418;51.210;6.976;2023-08-01T01:02:07;17.90;99.90
36384;DHT22;22418;51.210;6.976;2023-08-01T01:04:38;17.90;99.90
36384;DHT22;22418;51.210;6.976;2023-08-01T01:07:08;17.90;99.90
36384;DHT22;22418;51.210;6.976;2023-08-01T01:09:39;17.90;99.90
36384;DHT22;22418;51.210;6.976;2023-08-01T01:12:09;17.80;99.90
36384;DHT22;22418;51.210;6.976;2023-08-01T01:14:40;17.80;99.90
36384;DHT22;22418;51.210;6.976;2023-08-01T01:17:11;17.80;99.90
36384;DHT22;22418;51.210;6.976;2023-08-01T01:19:42;17.80;99.90
36384;DHT22;22418;51.210;6.976;2023-08-01T01:22:12;17.80;99.90
36384;DHT22;22418;51.210;6.976;2023-08-01T01:24:43;17.80;99.90
36384;DHT22;22418;51.210;6.976;2023-08-01T01:27:14;17.80;99.90
36384;DHT22;22418;51.210;6.976;2023-08-01T01:29:46;17.90;99.90
36384;DHT22;22418;51.210;6.976;2023-08-01T01:32:17;17.90;99.90
36384;DHT22;22418;51.210;6.976;2023-08-01T01:34:48;17.90;99.90
36384;DHT22;22418;51.210;6.976;2023-08-01T01:37:18;17.90;99.90
36384;DHT22;22418;51.210;6.976;2023-08-01T01:39:49;17.90;99.90
36384;DHT22;22418;51.210;6.976;2023-08-01T01:42:19;17.90;99.90
36384;DHT22;22418;51.210;6.976;2023-08-01T01:44:50;17.90;99.90
36384;DHT22;22418;51.210;6.976;2023-08-01T01:47:20;17.90;99.90
36384;DHT22;22418;51.210;6.976;2023-08-01T01:49:51;17.90;99.90
36384;DHT22;22418;51.210;6.976;2023-08-01T01:52:21;17.90;99.90
36384;DHT22;22418;51.210;6.976;2023-08-01T01:54:52;17.90;99.90
36384;DHT22;22418;51.210;6.976;2023-08-01T01:57:22;17.90;99.90
36384;DHT22;22418;51.210;6.976;2023-08-01T01:59:52;17.90;99.90
36384;DHT22;22418;51.210;6.976;2023-08-01T02:02:23;17.90;99.90
36384;DHT22;22418;51.210;6.976;2023-08-01T02:04:53;17.90;99.90
36384;DHT22;22418;51.210;6.976;2023-08-01T02:07:24;17.90;99.90
36384;DHT22;22418;51.210;6.976;2023-08-01T02:09:54;17.90;99.90
36384;DHT22;22418;51.210;6.976;2023-08-01T02:12:25;17.90;99.90
36384;DHT22;22418;51.210;6.976;2023-08-01T02:14:55;17.90;99.90
36384;DHT22;22418;51.210;6.976;2023-08-01T02:17:26;17.90;99.90
36384;DHT22;22418;51.210;6.976;2023-08-01T02:19:56;17.90;99.90
36384;DHT22;22418;51.210;6.976;2023-08-01T02:22:27;17.90;99.90
36384;DHT22;22418;51.210;6.976;2023-08-01T02:24:57;17.90;99.90
36384;DHT22;22418;51.210;6.976;2023-08-01T02:27:28;17.90;99.90
36384;DHT22;22418;51.210;6.976;2023-08-01T02:29:58;17.90;99.90
36384;DHT22;22418;51.210;6.976;2023-08-01T02:32:28;17.90;99.90
36384;DHT22;22418;51.210;6.976;2023-08-01T02:34:59;17.90;99.90
36384;DHT22;22418;51.210;6.976;2023-08-01T02:37:29;17.90;99.90
36384;DHT22;22418;51.210;6.976;2023-08-01T02:40:01;17.90;99.90
36384;DHT22;22418;51.210;6.976;2023-08-01T02:42:31;17.90;99.90
36384;DHT22;22418;51.210;6.976;2023-08-01T02:45:02;17.90;99.90
36384;DHT22;22418;51.210;6.976;2023-08-01T02:47:32;17.90;99.90
36384;DHT22;22418;51.210;6.976;2023-08-01T02:50:03;17.90;99.90
36384;DHT22;22418;51.210;6.976;2023-08-01T02:52:33;17.80;99.90
36384;DHT22;22418;51.210;6.976;2023-08-01T02:55:04;17.90;99.90
36384;DHT22;22418;51.210;6.976;2023-08-01T02:57:35;17.80;99.90
36384;DHT22;22418;51.210;6.976;2023-08-01T03:00:06;17.80;99.90
36384;DHT22;22418;51.210;6.976;2023-08-01T03:02:41;17.80;99.90
36384;DHT22;22418;51.210;6.976;2023-08-01T03:05:11;17.80;99.90
36384;DHT22;22418;51.210;6.976;2023-08-01T03:07:42;17.80;99.90
36384;DHT22;22418;51.210;6.976;2023-08-01T03:10:12;17.80;99.90
36384;DHT22;22418;51.210;6.976;2023-08-01T03:12:43;17.80;99.90
36384;DHT22;22418;51.210;6.976;2023-08-01T03:15:13;17.70;99.90
36384;DHT22;22418;51.210;6.976;2023-08-01T03:17:44;17.80;99.90
36384;DHT22;22418;51.210;6.976;2023-08-01T03:20:14;17.70;99.90
36384;DHT22;22418;51.210;6.976;2023-08-01T03:22:45;17.70;99.90
36384;DHT22;22418;51.210;6.976;2023-08-01T03:25:15;17.60;99.90
36384;DHT22;22418;51.210;6.976;2023-08-01T03:27:46;17.60;99.90
36384;DHT22;22418;51.210;6.976;2023-08-01T03:30:16;17.60;99.90
36384;DHT22;22418;51.210;6.976;2023-08-01T03:32:47;17.50;99.90
36384;DHT22;22418;51.210;6.976;2023-08-01T03:35:17;17.50;99.90
36384;DHT22;22418;51.210;6.976;2023-08-01T03:37:48;17.50;99.90
36384;DHT22;22418;51.210;6.976;2023-08-01T03:40:18;17.50;99.90
36384;DHT22;22418;51.210;6.976;2023-08-01T03:42:50;17.50;99.90
36384;DHT22;22418;51.210;6.976;2023-08-01T03:45:20;17.40;99.90
36384;DHT22;22418;51.210;6.976;2023-08-01T03:47:51;17.30;99.90
36384;DHT22;22418;51.210;6.976;2023-08-01T03:50:21;17.30;99.90
36384;DHT22;22418;51.210;6.976;2023-08-01T03:52:51;17.30;99.90
36384;DHT22;22418;51.210;6.976;2023-08-01T03:55:22;17.30;99.90
36384;DHT22;22418;51.210;6.976;2023-08-01T03:57:52;17.30;99.90
36384;DHT22;22418;51.210;6.976;2023-08-01T04:00:23;17.30;99.90
36384;DHT22;22418;51.210;6.976;2023-08-01T04:02:54;17.30;99.90
36384;DHT22;22418;51.210;6.976;2023-08-01T04:05:24;17.20;99.90
36384;DHT22;22418;51.210;6.976;2023-08-01T04:07:54;17.20;99.90
36384;DHT22;22418;51.210;6.976;2023-08-01T04:10:25;17.20;99.90
36384;DHT22;22418;51.210;6.976;2023-08-01T04:12:55;17.20;99.90
36384;DHT22;22418;51.210;6.976;2023-08-01T04:15:26;17.20;99.90
36384;DHT22;22418;51.210;6.976;2023-08-01T04:17:56;17.20;99.90
36384;DHT22;22418;51.210;6.976;2023-08-01T04:20:27;17.30;99.90
36384;DHT22;22418;51.210;6.976;2023-08-01T04:22:57;17.20;99.90
36384;DHT22;22418;51.210;6.976;2023-08-01T04:25:28;17.20;99.90
36384;DHT22;22418;51.210;6.976;2023-08-01T04:27:58;17.20;99.90
36384;DHT22;22418;51.210;6.976;2023-08-01T04:30:29;17.20;99.90
36384;DHT22;22418;51.210;6.976;2023-08-01T04:32:59;17.20;99.90
36384;DHT22;22418;51.210;6.976;2023-08-01T04:35:29;17.20;99.90
36384;DHT22;22418;51.210;6.976;2023-08-01T04:38:00;17.30;99.90
36384;DHT22;22418;51.210;6.976;2023-08-01T04:40:30;17.30;99.90
36384;DHT22;22418;51.210;6.976;2023-08-01T04:43:01;17.30;99.90
36384;DHT22;22418;51.210;6.976;2023-08-01T04:45:31;17.30;99.90
36384;DHT22;22418;51.210;6.976;2023-08-01T04:48:02;17.30;99.90
36384;DHT22;22418;51.210;6.976;2023-08-01T04:50:32;17.30;99.90
36384;DHT22;22418;51.210;6.976;2023-08-01T04:53:03;17.30;99.90
36384;DHT22;22418;51.210;6.976;2023-08-01T04:55:34;17.20;99.90
36384;DHT22;22418;51.210;6.976;2023-08-01T04:58:04;17.20;99.90
36384;DHT22;22418;51.210;6.976;2023-08-01T05:00:35;17.20;99.90
36384;DHT22;22418;51.210;6.976;2023-08-01T05:03:05;17.20;99.90
36384;DHT22;22418;51.210;6.976;2023-08-01T05:05:36;17.20;99.90
36384;DHT22;22418;51.210;6.976;2023-08-01T05:08:06;17.20;99.90
36384;DHT22;22418;51.210;6.976;2023-08-01T05:10:37;17.20;99.90
36384;DHT22;22418;51.210;6.976;2023-08-01T05:13:07;17.20;99.90
36384;DHT22;22418;51.210;6.976;2023-08-01T05:15:37;17.20;99.90
36384;DHT22;22418;51.210;6.976;2023-08-01T05:18:08;17.20;99.90
36384;DHT22;22418;51.210;6.976;2023-08-01T05:20:38;17.20;99.90
36384;DHT22;22418;51.210;6.976;2023-08-01T05:23:09;17.20;99.90
36384;DHT22;22418;51.210;6.976;2023-08-01T05:25:39;17.20;99.90
36384;DHT22;22418;51.210;6.976;2023-08-01T05:28:10;17.20;99.90
36384;DHT22;22418;51.210;6.976;2023-08-01T05:30:40;17.20;99.90
36384;DHT22;22418;51.210;6.976;2023-08-01T05:33:11;17.20;99.90
36384;DHT22;22418;51.210;6.976;2023-08-01T05:35:41;17.30;99.90
36384;DHT22;22418;51.210;6.976;2023-08-01T05:38:12;17.30;99.90
36384;DHT22;22418;51.210;6.976;2023-08-01T05:40:42;17.40;99.90
36384;DHT22;22418;51.210;6.976;2023-08-01T05:43:13;17.40;99.90
36384;DHT22;22418;51.210;6.976;2023-08-01T05:45:43;17.40;99.90
36384;DHT22;22418;51.210;6.976;2023-08-01T05:48:14;17.40;99.90
36384;DHT22;22418;51.210;6.976;2023-08-01T05:50:44;17.50;99.90
36384;DHT22;22418;51.210;6.976;2023-08-01T05:53:15;17.50;99.90
36384;DHT22;22418;51.210;6.976;2023-08-01T05:55:45;17.50;99.90
36384;DHT22;22418;51.210;6.976;2023-08-01T05:58:16;17.50;99.90
36384;DHT22;22418;51.210;6.976;2023-08-01T06:00:46;17.50;99.90
36384;DHT22;22418;51.210;6.976;2023-08-01T06:03:17;17.60;99.90
36384;DHT22;22418;51.210;6.976;2023-08-01T06:05:48;17.50;99.90
36384;DHT22;22418;51.210;6.976;2023-08-01T06:08:19;17.40;99.90
36384;DHT22;22418;51.210;6.976;2023-08-01T06:10:49;17.40;99.90
36384;DHT22;22418;51.210;6.976;2023-08-01T06:13:20;17.40;99.90
36384;DHT22;22418;51.210;6.976;2023-08-01T06:15:51;17.40;99.90
36384;DHT22;22418;51.210;6.976;2023-08-01T06:18:21;17.40;99.90
36384;DHT22;22418;51.210;6.976;2023-08-01T06:20:52;17.50;99.90
36384;DHT22;22418;51.210;6.976;2023-08-01T06:23:22;17.50;99.90
36384;DHT22;22418;51.210;6.976;2023-08-01T06:25:53;17.50;99.90
36384;DHT22;22418;51.210;6.976;2023-08-01T06:28:23;17.50;99.90
36384;DHT22;22418;51.210;6.976;2023-08-01T06:30:54;17.50;99.90
36384;DHT22;22418;51.210;6.976;2023-08-01T06:33:24;17.50;99.90
36384;DHT22;22418;51.210;6.976;2023-08-01T06:35:55;17.50;99.90
36384;DHT22;22418;51.210;6.976;2023-08-01T06:38:25;17.60;99.90
36384;DHT22;22418;51.210;6.976;2023-08-01T06:40:56;17.60;99.90
36384;DHT22;22418;51.210;6.976;2023-08-01T06:43:26;17.70;99.90
36384;DHT22;22418;51.210;6.976;2023-08-01T06:45:57;17.90;99.90
36384;DHT22;22418;51.210;6.976;2023-08-01T06:48:27;18.00;99.90
36384;DHT22;22418;51.210;6.976;2023-08-01T06:50:57;18.00;99.90
36384;DHT22;22418;51.210;6.976;2023-08-01T06:53:28;18.10;99.90
36384;DHT22;22418;51.210;6.976;2023-08-01T06:55:58;18.30;99.90
36384;DHT22;22418;51.210;6.976;2023-08-01T06:58:29;18.40;99.90
36384;DHT22;22418;51.210;6.976;2023-08-01T07:01:00;18.60;99.90
36384;DHT22;22418;51.210;6.976;2023-08-01T07:03:30;18.90;99.90
36384;DHT22;22418;51.210;6.976;2023-08-01T07:06:01;19.00;99.90
36384;DHT22;22418;51.210;6.976;2023-08-01T07:08:31;19.00;99.90
36384;DHT22;22418;51.210;6.976;2023-08-01T07:11:02;18.90;99.90
36384;DHT22;22418;51.210;6.976;2023-08-01T07:13:32;18.80;99.90
36384;DHT22;22418;51.210;6.976;2023-08-01T07:16:03;18.60;99.90
36384;DHT22;22418;51.210;6.976;2023-08-01T07:18:34;18.60;99.90
36384;DHT22;22418;51.210;6.976;2023-08-01T07:21:04;18.60;99.90
36384;DHT22;22418;51.210;6.976;2023-08-01T07:23:34;18.80;99.90
36384;DHT22;22418;51.210;6.976;2023-08-01T07:26:06;18.80;99.90
36384;DHT22;22418;51.210;6.976;2023-08-01T07:28:36;18.70;99.90
36384;DHT22;22418;51.210;6.976;2023-08-01T07:31:07;18.60;99.90
36384;DHT22;22418;51.210;6.976;2023-08-01T07:33:37;18.70;99.90
36384;DHT22;22418;51.210;6.976;2023-08-01T07:36:08;18.90;99.90
36384;DHT22;22418;51.210;6.976;2023-08-01T07:38:38;19.00;99.90
36384;DHT22;22418;51.210;6.976;2023-08-01T07:41:09;19.00;99.90
36384;DHT22;22418;51.210;6.976;2023-08-01T07:43:39;19.10;99.90
36384;DHT22;22418;51.210;6.976;2023-08-01T07:46:10;19.00;99.90
36384;DHT22;22418;51.210;6.976;2023-08-01T07:48:41;19.00;99.90
36384;DHT22;22418;51.210;6.976;2023-08-01T07:51:12;19.00;99.90
36384;DHT22;22418;51.210;6.976;2023-08-01T07:53:42;19.10;99.90
36384;DHT22;22418;51.210;6.976;2023-08-01T07:56:13;19.30;99.90
36384;DHT22;22418;51.210;6.976;2023-08-01T07:58:43;19.20;99.90
36384;DHT22;22418;51.210;6.976;2023-08-01T08:01:14;19.20;99.90
36384;DHT22;22418;51.210;6.976;2023-08-01T08:03:44;19.20;99.90
36384;DHT22;22418;51.210;6.976;2023-08-01T08:06:15;19.30;99.90
36384;DHT22;22418;51.210;6.976;2023-08-01T08:08:45;19.20;99.90
36384;DHT22;22418;51.210;6.976;2023-08-01T08:11:16;19.10;99.90
36384;DHT22;22418;51.210;6.976;2023-08-01T08:13:46;19.30;99.90
36384;DHT22;22418;51.210;6.976;2023-08-01T08:16:17;19.20;99.90
36384;DHT22;22418;51.210;6.976;2023-08-01T08:18:47;19.20;99.90
36384;DHT22;22418;51.210;6.976;2023-08-01T08:21:18;19.10;99.90
36384;DHT22;22418;51.210;6.976;2023-08-01T08:23:48;19.10;99.90
36384;DHT22;22418;51.210;6.976;2023-08-01T08:26:19;19.10;99.90
36384;DHT22;22418;51.210;6.976;2023-08-01T08:28:49;19.20;99.90
36384;DHT22;22418;51.210;6.976;2023-08-01T08:31:19;19.30;99.90
36384;DHT22;22418;51.210;6.976;2023-08-01T08:33:50;19.30;99.90
36384;DHT22;22418;51.210;6.976;2023-08-01T08:36:20;19.30;99.90
36384;DHT22;22418;51.210;6.976;2023-08-01T08:38:53;19.10;99.90
36384;DHT22;22418;51.210;6.976;2023-08-01T08:41:26;19.00;99.90
36384;DHT22;22418;51.210;6.976;2023-08-01T08:43:56;19.00;99.90
36384;DHT22;22418;51.210;6.976;2023-08-01T08:46:28;18.90;99.90
36384;DHT22;22418;51.210;6.976;2023-08-01T08:48:59;19.00;99.90
36384;DHT22;22418;51.210;6.976;2023-08-01T08:51:30;19.20;99.90
36384;DHT22;22418;51.210;6.976;2023-08-01T08:54:01;19.30;99.90
36384;DHT22;22418;51.210;6.976;2023-08-01T08:56:32;19.40;99.90
36384;DHT22;22418;51.210;6.976;2023-08-01T08:59:03;19.40;99.90
36384;DHT22;22418;51.210;6.976;2023-08-01T09:01:34;19.40;99.90
36384;DHT22;22418;51.210;6.976;2023-08-01T09:04:05;19.40;99.90
36384;DHT22;22418;51.210;6.976;2023-08-01T09:06:45;19.70;99.90
36384;DHT22;22418;51.210;6.976;2023-08-01T09:09:16;20.00;99.90
36384;DHT22;22418;51.210;6.976;2023-08-01T09:11:47;20.30;99.90
36384;DHT22;22418;51.210;6.976;2023-08-01T09:14:18;20.40;99.90
36384;DHT22;22418;51.210;6.976;2023-08-01T09:16:49;20.20;99.90
36384;DHT22;22418;51.210;6.976;2023-08-01T09:19:24;20.10;99.90
36384;DHT22;22418;51.210;6.976;2023-08-01T09:21:55;20.10;99.90
36384;DHT22;22418;51.210;6.976;2023-08-01T09:24:26;20.00;99.90
36384;DHT22;22418;51.210;6.976;2023-08-01T09:27:02;20.00;99.90
36384;DHT22;22418;51.210;6.976;2023-08-01T09:29:33;20.20;99.90
36384;DHT22;22418;51.210;6.976;2023-08-01T09:32:11;20.50;99.90
36384;DHT22;22418;51.210;6.976;2023-08-01T09:34:42;20.70;99.90
36384;DHT22;22418;51.210;6.976;2023-08-01T09:37:13;21.00;99.90
36384;DHT22;22418;51.210;6.976;2023-08-01T09:39:43;21.00;99.90
36384;DHT22;22418;51.210;6.976;2023-08-01T09:42:16;20.90;99.90
36384;DHT22;22418;51.210;6.976;2023-08-01T09:44:47;20.90;99.90
36384;DHT22;22418;51.210;6.976;2023-08-01T09:47:17;21.00;99.90
36384;DHT22;22418;51.210;6.976;2023-08-01T09:49:49;21.40;99.90
36384;DHT22;22418;51.210;6.976;2023-08-01T09:52:27;21.80;99.90
36384;DHT22;22418;51.210;6.976;2023-08-01T09:54:57;22.10;99.90
36384;DHT22;22418;51.210;6.976;2023-08-01T09:57:31;22.30;99.90
36384;DHT22;22418;51.210;6.976;2023-08-01T10:00:02;22.30;99.90
36384;DHT22;22418;51.210;6.976;2023-08-01T10:02:33;22.20;99.90
36384;DHT22;22418;51.210;6.976;2023-08-01T10:05:04;22.20;99.90
36384;DHT22;22418;51.210;6.976;2023-08-01T10:07:36;22.30;99.90
36384;DHT22;22418;51.210;6.976;2023-08-01T10:10:08;22.40;99.90
36384;DHT22;22418;51.210;6.976;2023-08-01T10:12:39;22.30;99.90
36384;DHT22;22418;51.210;6.976;2023-08-01T10:15:13;22.10;99.90
36384;DHT22;22418;51.210;6.976;2023-08-01T10:17:44;22.20;99.90
36384;DHT22;22418;51.210;6.976;2023-08-01T10:20:15;22.40;99.90
36384;DHT22;22418;51.210;6.976;2023-08-01T10:22:45;22.60;99.90
36384;DHT22;22418;51.210;6.976;2023-08-01T10:25:17;22.50;99.90
36384;DHT22;22418;51.210;6.976;2023-08-01T10:27:58;22.30;99.90
36384;DHT22;22418;51.210;6.976;2023-08-01T10:30:29;22.20;99.90
36384;DHT22;22418;51.210;6.976;2023-08-01T10:33:00;22.20;99.90
36384;DHT22;22418;51.210;6.976;2023-08-01T10:35:37;22.20;99.90
36384;DHT22;22418;51.210;6.976;2023-08-01T10:38:10;22.20;99.90
36384;DHT22;22418;51.210;6.976;2023-08-01T10:40:41;22.30;99.90
36384;DHT22;22418;51.210;6.976;2023-08-01T10:43:19;22.30;99.90
36384;DHT22;22418;51.210;6.976;2023-08-01T10:46:03;22.30;99.90
36384;DHT22;22418;51.210;6.976;2023-08-01T10:48:34;22.30;99.90
36384;DHT22;22418;51.210;6.976;2023-08-01T10:51:04;22.40;99.90
36384;DHT22;22418;51.210;6.976;2023-08-01T10:53:38;22.50;99.90
36384;DHT22;22418;51.210;6.976;2023-08-01T10:56:16;22.50;99.90
36384;DHT22;22418;51.210;6.976;2023-08-01T10:58:47;22.40;99.90
36384;DHT22;22418;51.210;6.976;2023-08-01T11:01:18;22.50;99.90
36384;DHT22;22418;51.210;6.976;2023-08-01T11:03:48;22.50;99.90
36384;DHT22;22418;51.210;6.976;2023-08-01T11:06:19;22.30;99.90
36384;DHT22;22418;51.210;6.976;2023-08-01T11:08:49;22.10;99.90
36384;DHT22;22418;51.210;6.976;2023-08-01T11:11:20;22.00;99.90
36384;DHT22;22418;51.210;6.976;2023-08-01T11:13:51;21.80;99.90
36384;DHT22;22418;51.210;6.976;2023-08-01T11:16:23;21.60;99.90
36384;DHT22;22418;51.210;6.976;2023-08-01T11:18:53;21.70;99.90
36384;DHT22;22418;51.210;6.976;2023-08-01T11:21:27;21.90;99.90
36384;DHT22;22418;51.210;6.976;2023-08-01T11:23:57;22.00;99.90
36384;DHT22;22418;51.210;6.976;2023-08-01T11:26:28;22.20;99.90
36384;DHT22;22418;51.210;6.976;2023-08-01T11:29:02;22.50;99.90
36384;DHT22;22418;51.210;6.976;2023-08-01T11:31:33;22.60;99.90
36384;DHT22;22418;51.210;6.976;2023-08-01T11:34:04;22.60;99.90
36384;DHT22;22418;51.210;6.976;2023-08-01T11:36:35;22.60;99.90
36384;DHT22;22418;51.210;6.976;2023-08-01T11:39:05;22.50;99.90
36384;DHT22;22418;51.210;6.976;2023-08-01T11:41:36;22.40;99.90
36384;DHT22;22418;51.210;6.976;2023-08-01T11:44:07;22.20;99.90
36384;DHT22;22418;51.210;6.976;2023-08-01T11:46:39;21.90;99.90
36384;DHT22;22418;51.210;6.976;2023-08-01T11:49:09;21.60;99.90
36384;DHT22;22418;51.210;6.976;2023-08-01T11:51:44;21.30;99.90
36384;DHT22;22418;51.210;6.976;2023-08-01T11:54:15;21.00;99.90
36384;DHT22;22418;51.210;6.976;2023-08-01T11:56:45;20.70;99.90
36384;DHT22;22418;51.210;6.976;2023-08-01T11:59:16;20.30;99.90
36384;DHT22;22418;51.210;6.976;2023-08-01T12:01:47;20.10;99.90
36384;DHT22;22418;51.210;6.976;2023-08-01T12:04:25;19.70;99.90
36384;DHT22;22418;51.210;6.976;2023-08-01T12:06:56;19.40;99.90
36384;DHT22;22418;51.210;6.976;2023-08-01T12:09:31;19.40;99.90
36384;DHT22;22418;51.210;6.976;2023-08-01T12:12:01;19.40;99.90
36384;DHT22;22418;51.210;6.976;2023-08-01T12:14:32;19.50;99.90
36384;DHT22;22418;51.210;6.976;2023-08-01T12:17:02;19.60;99.90
36384;DHT22;22418;51.210;6.976;2023-08-01T12:19:33;19.80;99.90
36384;DHT22;22418;51.210;6.976;2023-08-01T12:22:04;19.80;99.90
36384;DHT22;22418;51.210;6.976;2023-08-01T12:24:34;19.70;99.90
36384;DHT22;22418;51.210;6.976;2023-08-01T12:27:08;19.70;99.90
36384;DHT22;22418;51.210;6.976;2023-08-01T12:29:38;19.80;99.90
36384;DHT22;22418;51.210;6.976;2023-08-01T12:32:09;19.80;99.90
36384;DHT22;22418;51.210;6.976;2023-08-01T12:34:39;19.60;99.90
36384;DHT22;22418;51.210;6.976;2023-08-01T12:37:09;19.50;99.90
36384;DHT22;22418;51.210;6.976;2023-08-01T12:39:40;19.40;99.90
36384;DHT22;22418;51.210;6.976;2023-08-01T12:42:10;19.30;99.90
36384;DHT22;22418;51.210;6.976;2023-08-01T12:44:41;19.40;99.90
36384;DHT22;22418;51.210;6.976;2023-08-01T12:47:11;19.50;99.90
36384;DHT22;22418;51.210;6.976;2023-08-01T12:49:42;19.80;99.90
36384;DHT22;22418;51.210;6.976;2023-08-01T12:52:21;20.00;99.90
36384;DHT22;22418;51.210;6.976;2023-08-01T12:54:51;20.20;99.90
36384;DHT22;22418;51.210;6.976;2023-08-01T12:57:22;20.30;99.90
36384;DHT22;22418;51.210;6.976;2023-08-01T12:59:53;20.30;99.90
36384;DHT22;22418;51.210;6.976;2023-08-01T13:02:24;20.10;99.90
36384;DHT22;22418;51.210;6.976;2023-08-01T13:04:54;20.00;99.90
36384;DHT22;22418;51.210;6.976;2023-08-01T13:07:25;19.90;99.90
36384;DHT22;22418;51.210;6.976;2023-08-01T13:09:55;19.80;99.90
36384;DHT22;22418;51.210;6.976;2023-08-01T13:12:26;19.90;99.90
36384;DHT22;22418;51.210;6.976;2023-08-01T13:14:56;19.90;99.90
36384;DHT22;22418;51.210;6.976;2023-08-01T13:17:27;19.80;99.90
36384;DHT22;22418;51.210;6.976;2023-08-01T13:19:57;19.80;99.90
36384;DHT22;22418;51.210;6.976;2023-08-01T13:22:28;19.70;99.90
36384;DHT22;22418;51.210;6.976;2023-08-01T13:24:58;19.80;99.90
36384;DHT22;22418;51.210;6.976;2023-08-01T13:27:29;19.90;99.90
36384;DHT22;22418;51.210;6.976;2023-08-01T13:29:59;20.00;99.90
36384;DHT22;22418;51.210;6.976;2023-08-01T13:32:30;20.20;99.90
36384;DHT22;22418;51.210;6.976;2023-08-01T13:35:00;20.10;99.90
36384;DHT22;22418;51.210;6.976;2023-08-01T13:37:31;20.10;99.90
36384;DHT22;22418;51.210;6.976;2023-08-01T13:40:02;20.00;99.90
36384;DHT22;22418;51.210;6.976;2023-08-01T13:42:32;19.90;99.90
36384;DHT22;22418;51.210;6.976;2023-08-01T13:45:03;20.00;99.90
36384;DHT22;22418;51.210;6.976;2023-08-01T13:47:33;20.20;99.90
36384;DHT22;22418;51.210;6.976;2023-08-01T13:50:04;20.50;99.90
36384;DHT22;22418;51.210;6.976;2023-08-01T13:52:38;20.60;99.90
36384;DHT22;22418;51.210;6.976;2023-08-01T13:55:09;20.80;99.90
36384;DHT22;22418;51.210;6.976;2023-08-01T13:57:40;20.90;99.90
36384;DHT22;22418;51.210;6.976;2023-08-01T14:00:10;20.90;99.90
36384;DHT22;22418;51.210;6.976;2023-08-01T14:02:41;20.90;99.90
36384;DHT22;22418;51.210;6.976;2023-08-01T14:05:11;20.90;99.90
36384;DHT22;22418;51.210;6.976;2023-08-01T14:07:42;21.00;99.90
36384;DHT22;22418;51.210;6.976;2023-08-01T14:10:12;21.20;99.90
36384;DHT22;22418;51.210;6.976;2023-08-01T14:12:44;21.40;99.90
36384;DHT22;22418;51.210;6.976;2023-08-01T14:15:15;21.50;99.90
36384;DHT22;22418;51.210;6.976;2023-08-01T14:17:45;21.50;99.90
36384;DHT22;22418;51.210;6.976;2023-08-01T14:20:16;21.40;99.90
36384;DHT22;22418;51.210;6.976;2023-08-01T14:22:47;21.40;99.90
36384;DHT22;22418;51.210;6.976;2023-08-01T14:25:17;21.30;99.90
36384;DHT22;22418;51.210;6.976;2023-08-01T14:27:48;21.30;99.90
36384;DHT22;22418;51.210;6.976;2023-08-01T14:30:18;21.40;99.90
36384;DHT22;22418;51.210;6.976;2023-08-01T14:32:49;21.40;99.90
36384;DHT22;22418;51.210;6.976;2023-08-01T14:35:19;21.50;99.90
36384;DHT22;22418;51.210;6.976;2023-08-01T14:37:50;21.50;99.90
36384;DHT22;22418;51.210;6.976;2023-08-01T14:40:20;21.30;99.90
36384;DHT22;22418;51.210;6.976;2023-08-01T14:42:51;21.10;99.90
36384;DHT22;22418;51.210;6.976;2023-08-01T14:45:22;20.90;99.90
36384;DHT22;22418;51.210;6.976;2023-08-01T14:47:52;20.80;99.90
36384;DHT22;22418;51.210;6.976;2023-08-01T14:50:23;20.80;99.90
36384;DHT22;22418;51.210;6.976;2023-08-01T14:52:53;21.00;99.90
36384;DHT22;22418;51.210;6.976;2023-08-01T14:55:24;21.10;99.90
36384;DHT22;22418;51.210;6.976;2023-08-01T14:57:54;21.10;99.90
36384;DHT22;22418;51.210;6.976;2023-08-01T15:00:25;21.00;99.90
36384;DHT22;22418;51.210;6.976;2023-08-01T15:02:55;20.90;99.90
36384;DHT22;22418;51.210;6.976;2023-08-01T15:05:26;20.80;99.90
36384;DHT22;22418;51.210;6.976;2023-08-01T15:07:56;20.70;99.90
36384;DHT22;22418;51.210;6.976;2023-08-01T15:10:27;20.60;99.90
36384;DHT22;22418;51.210;6.976;2023-08-01T15:12:57;20.50;99.90
36384;DHT22;22418;51.210;6.976;2023-08-01T15:15:28;20.50;99.90
36384;DHT22;22418;51.210;6.976;2023-08-01T15:17:58;20.50;99.90
36384;DHT22;22418;51.210;6.976;2023-08-01T15:20:28;20.50;99.90
36384;DHT22;22418;51.210;6.976;2023-08-01T15:22:59;20.50;99.90
36384;DHT22;22418;51.210;6.976;2023-08-01T15:25:29;20.60;99.90
36384;DHT22;22418;51.210;6.976;2023-08-01T15:28:00;20.60;99.90
36384;DHT22;22418;51.210;6.976;2023-08-01T15:30:30;20.60;99.90
36384;DHT22;22418;51.210;6.976;2023-08-01T15:33:01;20.60;99.90
36384;DHT22;22418;51.210;6.976;2023-08-01T15:35:31;20.50;99.90
36384;DHT22;22418;51.210;6.976;2023-08-01T15:38:02;20.50;99.90
36384;DHT22;22418;51.210;6.976;2023-08-01T15:40:32;20.50;99.90
36384;DHT22;22418;51.210;6.976;2023-08-01T15:43:03;20.50;99.90
36384;DHT22;22418;51.210;6.976;2023-08-01T15:45:33;20.40;99.90
36384;DHT22;22418;51.210;6.976;2023-08-01T15:48:04;20.40;99.90
36384;DHT22;22418;51.210;6.976;2023-08-01T15:50:34;20.30;99.90
36384;DHT22;22418;51.210;6.976;2023-08-01T15:53:05;20.40;99.90